createdAt,value
2019-05-20T00:00:27.059Z,12.86
2019-05-20T00:01:27.171Z,12.94
2019-05-20T00:02:28.479Z,12.85
2019-05-20T00:03:27.024Z,12.86
2019-05-20T00:04:27.001Z,12.86
2019-05-20T00:05:27.124Z,12.83
2019-05-20T00:06:26.977Z,12.85
2019-05-20T00:07:27.191Z,12.83
2019-05-20T00:08:26.961Z,12.97
2019-05-20T00:09:26.938Z,13.03
2019-05-20T00:10:27.039Z,13.18
2019-05-20T00:11:26.938Z,13.12
2019-05-20T00:12:27.120Z,13.09
2019-05-20T00:13:26.952Z,13.08
2019-05-20T00:14:26.894Z,12.98
2019-05-20T00:15:26.885Z,12.90
2019-05-20T00:16:26.974Z,12.72
2019-05-20T00:17:26.879Z,12.72
2019-05-20T00:18:27.051Z,12.79
2019-05-20T00:19:26.853Z,12.79
2019-05-20T00:20:26.833Z,12.78
2019-05-20T00:21:26.824Z,12.85
2019-05-20T00:22:26.903Z,12.70
2019-05-20T00:23:26.842Z,12.68
2019-05-20T00:24:26.917Z,12.58
2019-05-20T00:25:26.853Z,12.67
2019-05-20T00:26:26.927Z,12.60
2019-05-20T00:27:26.766Z,12.47
2019-05-20T00:28:26.902Z,12.60
2019-05-20T00:29:26.802Z,12.53
2019-05-20T00:30:26.854Z,12.45
2019-05-20T00:31:26.975Z,12.46
2019-05-20T00:32:40.285Z,12.43
2019-05-20T00:33:27.700Z,12.50
2019-05-20T00:34:35.391Z,12.45
2019-05-20T00:35:27.670Z,12.50
2019-05-20T00:36:26.853Z,12.73
2019-05-20T00:37:26.663Z,12.70
2019-05-20T00:38:26.870Z,12.72
2019-05-20T00:39:26.688Z,12.72
2019-05-20T00:40:26.815Z,12.70
2019-05-20T00:41:26.628Z,12.65
2019-05-20T00:42:26.640Z,12.60
2019-05-20T00:43:26.609Z,12.45
2019-05-20T00:44:26.742Z,12.49
2019-05-20T00:45:26.565Z,12.46
2019-05-20T00:46:26.731Z,12.45
2019-05-20T00:47:26.553Z,12.47
2019-05-20T00:48:26.637Z,12.50
2019-05-20T00:49:26.542Z,12.58
2019-05-20T00:50:26.642Z,12.57
2019-05-20T00:51:26.503Z,12.53
2019-05-20T00:52:26.616Z,12.45
2019-05-20T00:53:26.487Z,12.46
2019-05-20T00:54:26.511Z,12.32
2019-05-20T00:55:26.629Z,12.28
2019-05-20T00:56:26.459Z,12.29
2019-05-20T00:57:26.591Z,12.25
2019-05-20T00:58:26.461Z,12.24
2019-05-20T00:59:26.481Z,12.31
2019-05-20T01:00:26.485Z,12.22
2019-05-20T01:01:26.545Z,12.20
2019-05-20T01:02:26.397Z,12.10
2019-05-20T01:03:26.541Z,12.06
2019-05-20T01:04:26.380Z,12.02
2019-05-20T01:05:26.355Z,11.94
2019-05-20T01:06:26.481Z,11.94
2019-05-20T01:07:26.339Z,11.84
2019-05-20T01:08:26.448Z,11.87
2019-05-20T01:09:26.332Z,11.80
2019-05-20T01:10:26.762Z,11.87
2019-05-20T01:11:26.308Z,11.90
2019-05-20T01:12:26.419Z,11.90
2019-05-20T01:13:26.313Z,11.95
2019-05-20T01:14:26.467Z,11.99
2019-05-20T01:15:26.267Z,11.99
2019-05-20T01:16:26.233Z,11.95
2019-05-20T01:17:26.235Z,11.86
2019-05-20T01:18:26.429Z,11.84
2019-05-20T01:19:26.253Z,11.80
2019-05-20T01:20:26.329Z,11.70
2019-05-20T01:21:26.203Z,11.63
2019-05-20T01:22:26.185Z,11.66
2019-05-20T01:23:26.290Z,11.69
2019-05-20T01:24:26.171Z,11.68
2019-05-20T01:25:26.376Z,11.72
2019-05-20T01:26:26.133Z,11.72
2019-05-20T01:27:26.121Z,11.69
2019-05-20T01:28:26.141Z,11.65
2019-05-20T01:29:28.189Z,11.70
2019-05-20T01:30:26.136Z,11.78
2019-05-20T01:31:32.996Z,11.75
2019-05-20T01:32:26.096Z,11.68
2019-05-20T01:33:26.056Z,11.66
2019-05-20T01:34:26.160Z,11.54
2019-05-20T01:35:26.103Z,11.48
2019-05-20T01:36:26.203Z,11.44
2019-05-20T01:37:26.015Z,11.43
2019-05-20T01:38:26.035Z,11.40
2019-05-20T01:39:26.005Z,11.37
2019-05-20T01:40:26.149Z,11.25
2019-05-20T01:41:25.987Z,11.32
2019-05-20T01:42:26.109Z,11.37
2019-05-20T01:43:25.955Z,11.43
2019-05-20T01:44:25.945Z,11.44
2019-05-20T01:45:26.088Z,11.40
2019-05-20T01:46:25.918Z,11.41
2019-05-20T01:47:26.043Z,11.43
2019-05-20T01:48:25.896Z,11.37
2019-05-20T01:49:26.052Z,11.36
2019-05-20T01:50:25.930Z,11.27
2019-05-20T01:51:25.962Z,11.18
2019-05-20T01:52:25.858Z,11.17
2019-05-20T01:53:26.036Z,11.18
2019-05-20T01:54:25.842Z,11.17
2019-05-20T01:55:25.874Z,11.18
2019-05-20T01:56:25.841Z,11.32
2019-05-20T01:57:25.926Z,11.35
2019-05-20T01:58:25.810Z,11.26
2019-05-20T01:59:25.913Z,11.30
2019-05-20T02:00:25.824Z,11.23
2019-05-20T02:01:25.828Z,11.22
2019-05-20T02:02:25.764Z,11.14
2019-05-20T02:03:31.806Z,11.07
2019-05-20T02:04:26.743Z,10.94
2019-05-20T02:05:25.921Z,10.96
2019-05-20T02:06:25.710Z,10.97
2019-05-20T02:07:25.760Z,10.94
2019-05-20T02:08:25.696Z,10.96
2019-05-20T02:09:25.800Z,10.96
2019-05-20T02:10:25.721Z,10.96
2019-05-20T02:11:26.723Z,11.02
2019-05-20T02:12:26.722Z,10.87
2019-05-20T02:13:25.711Z,10.86
2019-05-20T02:14:25.706Z,10.86
2019-05-20T02:15:25.616Z,10.78
2019-05-20T02:16:26.782Z,10.67
2019-05-20T02:17:25.610Z,10.64
2019-05-20T02:18:25.619Z,10.69
2019-05-20T02:19:25.575Z,10.71
2019-05-20T02:20:25.647Z,10.63
2019-05-20T02:21:25.594Z,10.60
2019-05-20T02:22:25.732Z,10.60
2019-05-20T02:23:25.523Z,10.59
2019-05-20T02:24:25.527Z,10.57
2019-05-20T02:25:25.579Z,10.61
2019-05-20T02:26:25.594Z,10.48
2019-05-20T02:27:25.596Z,10.46
2019-05-20T02:28:25.498Z,10.48
2019-05-20T02:29:25.607Z,10.44
2019-05-20T02:30:25.465Z,10.46
2019-05-20T02:31:25.603Z,10.41
2019-05-20T02:32:25.442Z,10.40
2019-05-20T02:33:25.573Z,10.37
2019-05-20T02:34:25.417Z,10.38
2019-05-20T02:35:25.428Z,10.34
2019-05-20T02:36:25.441Z,10.26
2019-05-20T02:37:25.426Z,10.34
2019-05-20T02:38:25.376Z,10.34
2019-05-20T02:39:26.601Z,10.31
2019-05-20T02:40:25.353Z,10.37
2019-05-20T02:41:25.410Z,10.35
2019-05-20T02:42:25.336Z,10.41
2019-05-20T02:43:25.396Z,10.33
2019-05-20T02:44:25.367Z,10.38
2019-05-20T02:45:25.404Z,10.35
2019-05-20T02:46:25.291Z,10.31
2019-05-20T02:47:25.299Z,10.31
2019-05-20T02:48:25.442Z,10.31
2019-05-20T02:49:25.301Z,10.19
2019-05-20T02:50:26.381Z,10.23
2019-05-20T02:51:25.256Z,10.16
2019-05-20T02:52:25.348Z,10.10
2019-05-20T02:53:25.272Z,10.09
2019-05-20T02:54:32.035Z,10.04
2019-05-20T02:55:25.204Z,10.05
2019-05-20T02:56:27.349Z,9.95
2019-05-20T02:57:25.181Z,9.99
2019-05-20T02:58:25.208Z,10.02
2019-05-20T02:59:25.158Z,9.97
2019-05-20T03:00:25.254Z,10.07
2019-05-20T03:01:25.150Z,10.09
2019-05-20T03:02:25.227Z,9.97
2019-05-20T03:03:25.125Z,9.99
2019-05-20T03:04:25.127Z,10.04
2019-05-20T03:05:25.128Z,9.99
2019-05-20T03:06:25.134Z,9.95
2019-05-20T03:07:25.079Z,9.92
2019-05-20T03:08:25.148Z,9.89
2019-05-20T03:09:25.045Z,9.99
2019-05-20T03:10:25.104Z,9.86
2019-05-20T03:11:25.033Z,9.92
2019-05-20T03:12:25.139Z,9.98
2019-05-20T03:13:25.080Z,9.91
2019-05-20T03:14:25.086Z,9.94
2019-05-20T03:15:24.993Z,9.97
2019-05-20T03:16:25.099Z,9.92
2019-05-20T03:17:24.982Z,9.89
2019-05-20T03:18:25.072Z,9.94
2019-05-20T03:19:24.946Z,9.89
2019-05-20T03:20:25.039Z,9.99
2019-05-20T03:21:24.930Z,9.98
2019-05-20T03:22:25.039Z,10.09
2019-05-20T03:23:24.990Z,10.17
2019-05-20T03:24:24.955Z,10.19
2019-05-20T03:25:24.885Z,10.25
2019-05-20T03:26:24.964Z,10.25
2019-05-20T03:27:24.873Z,10.30
2019-05-20T03:28:25.093Z,10.26
2019-05-20T03:29:24.863Z,10.46
2019-05-20T03:30:24.890Z,10.41
2019-05-20T03:31:24.827Z,10.48
2019-05-20T03:32:24.958Z,10.51
2019-05-20T03:33:24.804Z,10.57
2019-05-20T03:34:44.890Z,10.72
2019-05-20T03:35:25.797Z,10.61
2019-05-20T03:36:24.825Z,10.64
2019-05-20T03:37:24.759Z,10.84
2019-05-20T03:38:24.920Z,10.79
2019-05-20T03:39:24.743Z,10.86
2019-05-20T03:40:24.870Z,10.82
2019-05-20T03:41:24.726Z,10.97
2019-05-20T03:42:25.789Z,10.96
2019-05-20T03:43:24.749Z,10.89
2019-05-20T03:44:24.704Z,10.97
2019-05-20T03:45:24.678Z,11.02
2019-05-20T03:46:26.763Z,11.04
2019-05-20T03:47:24.692Z,11.04
2019-05-20T03:48:24.756Z,11.11
2019-05-20T03:49:24.660Z,11.36
2019-05-20T03:50:24.696Z,11.48
2019-05-20T03:51:24.600Z,11.72
2019-05-20T03:52:24.710Z,11.75
2019-05-20T03:53:24.638Z,11.77
2019-05-20T03:54:24.644Z,11.78
2019-05-20T03:55:24.651Z,11.75
2019-05-20T03:56:24.594Z,11.66
2019-05-20T03:57:24.758Z,11.75
2019-05-20T03:58:24.561Z,11.81
2019-05-20T03:59:24.593Z,11.75
2019-05-20T04:00:24.522Z,11.78
2019-05-20T04:01:24.510Z,11.87
2019-05-20T04:02:24.528Z,11.90
2019-05-20T04:03:24.619Z,11.95
2019-05-20T04:04:25.307Z,11.90
2019-05-20T04:05:24.519Z,11.86
2019-05-20T04:06:24.502Z,11.97
2019-05-20T04:07:25.437Z,12.02
2019-05-20T04:08:24.444Z,11.91
2019-05-20T04:09:24.562Z,12.04
2019-05-20T04:10:24.407Z,12.07
2019-05-20T04:11:24.521Z,12.07
2019-05-20T04:12:24.421Z,12.10
2019-05-20T04:13:24.385Z,12.17
2019-05-20T04:14:24.474Z,12.07
2019-05-20T04:15:24.403Z,12.15
2019-05-20T04:16:24.645Z,12.24
2019-05-20T04:17:24.345Z,12.24
2019-05-20T04:18:24.335Z,12.20
2019-05-20T04:19:24.385Z,12.20
2019-05-20T04:20:24.411Z,12.24
2019-05-20T04:21:24.295Z,12.24
2019-05-20T04:22:24.336Z,12.17
2019-05-20T04:23:24.292Z,12.20
2019-05-20T04:24:24.311Z,12.28
2019-05-20T04:25:24.257Z,12.35
2019-05-20T04:26:24.346Z,12.28
2019-05-20T04:27:24.249Z,12.27
2019-05-20T04:28:24.328Z,12.37
2019-05-20T04:29:24.213Z,12.45
2019-05-20T04:30:24.299Z,12.53
2019-05-20T04:31:24.198Z,12.49
2019-05-20T04:32:24.291Z,12.45
2019-05-20T04:33:24.210Z,12.45
2019-05-20T04:34:24.225Z,12.62
2019-05-20T04:35:24.224Z,12.64
2019-05-20T04:36:24.132Z,12.72
2019-05-20T04:37:25.356Z,12.70
2019-05-20T04:38:24.159Z,12.70
2019-05-20T04:39:24.263Z,12.76
2019-05-20T04:40:24.088Z,12.73
2019-05-20T04:41:24.104Z,12.85
2019-05-20T04:42:24.253Z,12.93
2019-05-20T04:43:24.131Z,12.97
2019-05-20T04:44:25.186Z,13.03
2019-05-20T04:45:24.086Z,13.05
2019-05-20T04:46:24.080Z,13.11
2019-05-20T04:47:24.046Z,13.13
2019-05-20T04:48:24.086Z,13.12
2019-05-20T04:49:24.006Z,13.09
2019-05-20T04:50:24.197Z,13.16
2019-05-20T04:51:24.022Z,13.09
2019-05-20T04:52:23.979Z,13.12
2019-05-20T04:53:24.000Z,13.22
2019-05-20T04:54:25.051Z,13.19
2019-05-20T04:55:23.996Z,13.20
2019-05-20T04:56:24.047Z,13.12
2019-05-20T04:57:23.910Z,13.23
2019-05-20T04:58:23.945Z,13.22
2019-05-20T04:59:23.977Z,13.19
2019-05-20T05:00:23.962Z,13.19
2019-05-20T05:01:23.942Z,13.25
2019-05-20T05:02:24.918Z,13.09
2019-05-20T05:03:23.983Z,13.08
2019-05-20T05:04:23.882Z,13.04
2019-05-20T05:05:36.755Z,13.13
2019-05-20T05:06:24.865Z,13.12
2019-05-20T05:07:23.891Z,13.13
2019-05-20T05:08:23.818Z,13.19
2019-05-20T05:09:23.800Z,13.23
2019-05-20T05:10:23.882Z,13.12
2019-05-20T05:11:23.768Z,13.25
2019-05-20T05:12:23.886Z,13.23
2019-05-20T05:13:23.807Z,13.23
2019-05-20T05:14:23.750Z,13.20
2019-05-20T05:15:23.758Z,13.19
2019-05-20T05:16:23.712Z,13.27
2019-05-20T05:17:23.905Z,13.19
2019-05-20T05:18:23.698Z,13.22
2019-05-20T05:19:23.781Z,13.15
2019-05-20T05:20:23.688Z,13.09
2019-05-20T05:21:24.719Z,13.13
2019-05-20T05:22:23.708Z,13.09
2019-05-20T05:23:31.502Z,13.09
2019-05-20T05:24:23.626Z,13.12
2019-05-20T05:25:23.757Z,13.11
2019-05-20T05:26:23.606Z,13.04
2019-05-20T05:27:24.707Z,12.97
2019-05-20T05:28:23.582Z,12.98
2019-05-20T05:29:23.659Z,13.00
2019-05-20T05:30:23.619Z,13.03
2019-05-20T05:31:23.555Z,13.09
2019-05-20T05:32:23.588Z,13.01
2019-05-20T05:33:24.425Z,13.05
2019-05-20T05:34:23.567Z,13.13
2019-05-20T05:35:24.680Z,13.05
2019-05-20T05:36:23.510Z,13.01
2019-05-20T05:37:23.507Z,12.97
2019-05-20T05:38:23.488Z,13.04
2019-05-20T05:39:23.570Z,13.01
2019-05-20T05:40:23.498Z,12.98
2019-05-20T05:41:23.523Z,13.05
2019-05-20T05:42:23.449Z,13.09
2019-05-20T05:43:24.446Z,13.03
2019-05-20T05:44:23.541Z,13.09
2019-05-20T05:45:23.455Z,13.12
2019-05-20T05:46:23.558Z,13.15
2019-05-20T05:47:23.376Z,13.18
2019-05-20T05:48:23.373Z,13.09
2019-05-20T05:49:23.364Z,13.12
2019-05-20T05:50:23.560Z,13.15
2019-05-20T05:51:23.333Z,13.09
2019-05-20T05:52:23.543Z,13.00
2019-05-20T05:53:23.316Z,13.05
2019-05-20T05:54:23.314Z,13.05
2019-05-20T05:55:23.330Z,13.15
2019-05-20T05:56:23.413Z,13.04
2019-05-20T05:57:23.285Z,13.03
2019-05-20T05:58:23.446Z,13.05
2019-05-20T05:59:23.254Z,13.11
2019-05-20T06:00:23.516Z,13.05
2019-05-20T06:01:23.264Z,13.08
2019-05-20T06:02:23.357Z,13.00
2019-05-20T06:03:23.262Z,13.04
2019-05-20T06:04:23.316Z,13.04
2019-05-20T06:05:23.393Z,12.90
2019-05-20T06:06:23.188Z,12.97
2019-05-20T06:07:23.287Z,12.90
2019-05-20T06:08:23.218Z,13.00
2019-05-20T06:09:23.299Z,12.95
2019-05-20T06:10:23.192Z,12.94
2019-05-20T06:11:24.387Z,12.93
2019-05-20T06:12:23.140Z,12.87
2019-05-20T06:13:30.085Z,12.95
2019-05-20T06:14:23.110Z,12.93
2019-05-20T06:15:25.260Z,12.95
2019-05-20T06:16:36.154Z,12.95
2019-05-20T06:17:24.054Z,12.91
2019-05-20T06:18:23.158Z,12.98
2019-05-20T06:19:23.081Z,13.03
2019-05-20T06:20:23.173Z,12.87
2019-05-20T06:21:23.019Z,12.90
2019-05-20T06:22:23.045Z,12.94
2019-05-20T06:23:23.198Z,12.94
2019-05-20T06:24:22.998Z,12.95
2019-05-20T06:25:23.121Z,12.98
2019-05-20T06:26:23.026Z,12.98
2019-05-20T06:27:22.985Z,12.85
2019-05-20T06:28:22.958Z,12.78
2019-05-20T06:29:23.134Z,12.80
2019-05-20T06:30:22.976Z,12.78
2019-05-20T06:31:23.123Z,12.91
2019-05-20T06:32:22.894Z,12.82
2019-05-20T06:33:22.887Z,12.83
2019-05-20T06:34:22.988Z,12.91
2019-05-20T06:35:22.914Z,12.80
2019-05-20T06:36:26.919Z,12.83
2019-05-20T06:37:22.848Z,12.98
2019-05-20T06:38:22.846Z,12.98
2019-05-20T06:39:22.822Z,12.98
2019-05-20T06:40:23.050Z,13.05
2019-05-20T06:41:22.841Z,13.08
2019-05-20T06:42:22.929Z,13.11
2019-05-20T06:43:22.802Z,13.04
2019-05-20T06:44:22.784Z,13.04
2019-05-20T06:45:22.986Z,13.04
2019-05-20T06:46:22.790Z,13.01
2019-05-20T06:47:22.945Z,12.93
2019-05-20T06:48:22.718Z,12.90
2019-05-20T06:49:22.757Z,12.86
2019-05-20T06:50:22.718Z,12.98
2019-05-20T06:51:22.865Z,13.08
2019-05-20T06:52:35.426Z,13.04
2019-05-20T06:53:23.669Z,13.08
2019-05-20T06:54:24.887Z,13.09
2019-05-20T06:55:22.654Z,12.98
2019-05-20T06:56:29.600Z,13.05
2019-05-20T06:57:23.972Z,13.09
2019-05-20T06:58:29.582Z,13.09
2019-05-20T06:59:22.662Z,13.12
2019-05-20T07:00:22.637Z,13.05
2019-05-20T07:01:22.587Z,13.19
2019-05-20T07:02:24.724Z,13.20
2019-05-20T07:03:22.581Z,13.12
2019-05-20T07:04:23.767Z,13.03
2019-05-20T07:05:22.547Z,13.09
2019-05-20T07:06:22.536Z,13.05
2019-05-20T07:07:22.519Z,13.09
2019-05-20T07:08:22.711Z,13.08
2019-05-20T07:09:22.498Z,13.18
2019-05-20T07:10:22.668Z,13.19
2019-05-20T07:11:22.524Z,13.13
2019-05-20T07:12:22.463Z,13.23
2019-05-20T07:13:22.661Z,13.30
2019-05-20T07:14:22.454Z,13.31
2019-05-20T07:15:22.682Z,13.33
2019-05-20T07:16:22.501Z,13.31
2019-05-20T07:17:22.424Z,13.28
2019-05-20T07:18:22.414Z,13.20
2019-05-20T07:19:22.483Z,13.16
2019-05-20T07:20:22.383Z,13.23
2019-05-20T07:21:22.654Z,13.22
2019-05-20T07:22:22.360Z,13.20
2019-05-20T07:23:22.356Z,13.22
2019-05-20T07:24:22.375Z,13.20
2019-05-20T07:25:22.486Z,13.33
2019-05-20T07:26:22.383Z,13.31
2019-05-20T07:27:22.494Z,13.41
2019-05-20T07:28:22.315Z,13.37
2019-05-20T07:29:22.426Z,13.44
2019-05-20T07:30:22.331Z,13.46
2019-05-20T07:31:22.416Z,13.50
2019-05-20T07:32:22.281Z,13.56
2019-05-20T07:33:22.429Z,13.59
2019-05-20T07:34:22.236Z,13.68
2019-05-20T07:35:30.389Z,13.54
2019-05-20T07:36:23.213Z,13.62
2019-05-20T07:37:22.387Z,13.60
2019-05-20T07:38:22.198Z,13.62
2019-05-20T07:39:22.381Z,13.71
2019-05-20T07:40:22.210Z,13.68
2019-05-20T07:41:23.329Z,13.72
2019-05-20T07:42:22.175Z,13.87
2019-05-20T07:43:24.233Z,13.89
2019-05-20T07:44:22.130Z,13.85
2019-05-20T07:45:22.205Z,13.87
2019-05-20T07:46:22.128Z,13.90
2019-05-20T07:47:24.321Z,13.86
2019-05-20T07:48:22.133Z,13.95
2019-05-20T07:49:22.235Z,14.04
2019-05-20T07:50:22.058Z,14.05
2019-05-20T07:51:22.065Z,14.08
2019-05-20T07:52:22.216Z,14.11
2019-05-20T07:53:22.051Z,14.14
2019-05-20T07:54:22.160Z,14.14
2019-05-20T07:55:22.032Z,14.14
2019-05-20T07:56:22.065Z,14.07
2019-05-20T07:57:22.027Z,13.99
2019-05-20T07:58:22.086Z,14.07
2019-05-20T07:59:21.971Z,13.93
2019-05-20T08:00:22.105Z,13.89
2019-05-20T08:01:22.005Z,13.87
2019-05-20T08:02:22.030Z,13.92
2019-05-20T08:03:22.118Z,13.65
2019-05-20T08:04:21.941Z,13.70
2019-05-20T08:05:23.051Z,13.70
2019-05-20T08:06:21.911Z,13.74
2019-05-20T08:07:29.769Z,13.83
2019-05-20T08:08:22.884Z,13.89
2019-05-20T08:09:22.090Z,13.95
2019-05-20T08:10:21.894Z,13.90
2019-05-20T08:11:22.041Z,13.85
2019-05-20T08:12:21.837Z,13.75
2019-05-20T08:13:21.838Z,13.75
2019-05-20T08:14:21.831Z,13.72
2019-05-20T08:15:21.894Z,13.72
2019-05-20T08:16:21.844Z,13.70
2019-05-20T08:17:21.911Z,13.87
2019-05-20T08:18:21.811Z,13.87
2019-05-20T08:19:21.774Z,13.85
2019-05-20T08:20:21.921Z,14.00
2019-05-20T08:21:21.729Z,14.05
2019-05-20T08:22:21.837Z,14.03
2019-05-20T08:23:21.757Z,14.11
2019-05-20T08:24:21.714Z,14.11
2019-05-20T08:25:21.706Z,14.12
2019-05-20T08:26:28.643Z,14.28
2019-05-20T08:27:21.742Z,14.43
2019-05-20T08:28:28.531Z,14.53
2019-05-20T08:29:21.658Z,14.58
2019-05-20T08:30:21.660Z,14.51
2019-05-20T08:31:29.563Z,14.69
2019-05-20T08:32:21.689Z,14.82
2019-05-20T08:33:21.707Z,14.94
2019-05-20T08:34:21.647Z,14.96
2019-05-20T08:35:23.740Z,14.89
2019-05-20T08:36:21.632Z,15.00
2019-05-20T08:37:22.734Z,15.02
2019-05-20T08:38:22.554Z,15.11
2019-05-20T08:39:21.647Z,15.14
2019-05-20T08:40:21.587Z,15.18
2019-05-20T08:41:21.629Z,15.07
2019-05-20T08:42:21.516Z,15.04
2019-05-20T08:43:21.806Z,14.91
2019-05-20T08:44:21.602Z,14.97
2019-05-20T08:45:21.596Z,14.94
2019-05-20T08:46:21.478Z,14.97
2019-05-20T08:47:21.478Z,15.06
2019-05-20T08:48:22.684Z,14.92
2019-05-20T08:49:21.457Z,15.03
2019-05-20T08:50:23.553Z,15.02
2019-05-20T08:51:21.449Z,15.03
2019-05-20T08:52:21.413Z,15.22
2019-05-20T08:53:21.408Z,15.06
2019-05-20T08:54:21.617Z,15.07
2019-05-20T08:55:21.389Z,15.04
2019-05-20T08:56:21.571Z,15.17
2019-05-20T08:57:21.402Z,15.24
2019-05-20T08:58:21.347Z,15.15
2019-05-20T08:59:21.538Z,15.18
2019-05-20T09:00:23.219Z,15.18
2019-05-20T09:01:22.423Z,15.15
2019-05-20T09:02:21.307Z,15.27
2019-05-20T09:03:22.432Z,15.17
2019-05-20T09:04:21.285Z,15.06
2019-05-20T09:05:21.476Z,15.04
2019-05-20T09:06:21.262Z,15.03
2019-05-20T09:07:22.352Z,15.11
2019-05-20T09:08:21.241Z,15.19
2019-05-20T09:09:21.362Z,15.14
2019-05-20T09:10:21.227Z,15.03
2019-05-20T09:11:21.658Z,15.03
2019-05-20T09:12:21.207Z,14.85
2019-05-20T09:13:21.256Z,14.68
2019-05-20T09:14:21.205Z,14.82
2019-05-20T09:15:21.306Z,14.72
2019-05-20T09:16:21.926Z,14.66
2019-05-20T09:17:21.290Z,14.81
2019-05-20T09:18:21.165Z,14.69
2019-05-20T09:19:22.211Z,14.86
2019-05-20T09:20:21.345Z,14.97
2019-05-20T09:21:21.116Z,15.06
2019-05-20T09:22:21.239Z,15.22
2019-05-20T09:23:21.116Z,15.27
2019-05-20T09:24:21.308Z,15.24
2019-05-20T09:25:21.071Z,15.18
2019-05-20T09:26:21.103Z,15.22
2019-05-20T09:27:21.031Z,15.11
2019-05-20T09:28:21.190Z,15.04
2019-05-20T09:29:21.045Z,15.06
2019-05-20T09:30:21.167Z,14.99
2019-05-20T09:31:21.005Z,14.97
2019-05-20T09:32:22.178Z,14.86
2019-05-20T09:33:20.979Z,14.94
2019-05-20T09:34:21.089Z,14.91
2019-05-20T09:35:20.972Z,15.00
2019-05-20T09:36:20.959Z,15.02
2019-05-20T09:37:21.002Z,15.09
2019-05-20T09:38:21.505Z,15.25
2019-05-20T09:39:20.953Z,15.33
2019-05-20T09:40:21.006Z,15.37
2019-05-20T09:41:20.897Z,15.43
2019-05-20T09:42:20.923Z,15.31
2019-05-20T09:43:21.021Z,15.35
2019-05-20T09:44:20.886Z,15.25
2019-05-20T09:45:21.987Z,15.17
2019-05-20T09:46:20.843Z,15.15
2019-05-20T09:47:20.861Z,15.18
2019-05-20T09:48:24.904Z,15.10
2019-05-20T09:49:20.919Z,15.19
2019-05-20T09:50:20.809Z,15.09
2019-05-20T09:51:21.049Z,15.21
2019-05-20T09:52:20.766Z,15.22
2019-05-20T09:53:20.835Z,15.22
2019-05-20T09:54:20.765Z,15.25
2019-05-20T09:55:21.845Z,15.19
2019-05-20T09:56:20.736Z,15.21
2019-05-20T09:57:20.867Z,15.22
2019-05-20T09:58:20.711Z,15.35
2019-05-20T09:59:20.790Z,15.25
2019-05-20T10:00:20.751Z,15.24
2019-05-20T10:01:22.797Z,15.15
2019-05-20T10:02:20.752Z,15.09
2019-05-20T10:03:20.787Z,15.00
2019-05-20T10:04:22.735Z,15.02
2019-05-20T10:05:20.674Z,15.02
2019-05-20T10:06:20.693Z,15.06
2019-05-20T10:07:20.627Z,15.04
2019-05-20T10:08:36.371Z,15.06
2019-05-20T10:09:21.585Z,15.02
2019-05-20T10:10:20.637Z,15.11
2019-05-20T10:11:20.723Z,15.06
2019-05-20T10:12:20.552Z,15.19
2019-05-20T10:13:20.688Z,15.24
2019-05-20T10:14:20.537Z,15.24
2019-05-20T10:15:20.579Z,15.36
2019-05-20T10:16:20.528Z,15.40
2019-05-20T10:17:20.667Z,15.29
2019-05-20T10:18:35.937Z,15.27
2019-05-20T10:19:21.479Z,15.40
2019-05-20T10:20:20.670Z,15.55
2019-05-20T10:21:20.511Z,15.65
2019-05-20T10:22:20.686Z,15.70
2019-05-20T10:23:20.448Z,15.79
2019-05-20T10:24:20.630Z,15.86
2019-05-20T10:25:20.418Z,15.92
2019-05-20T10:26:20.460Z,15.91
2019-05-20T10:27:20.407Z,15.86
2019-05-20T10:28:20.536Z,15.82
2019-05-20T10:29:20.381Z,15.91
2019-05-20T10:30:22.442Z,15.79
2019-05-20T10:31:20.394Z,15.90
2019-05-20T10:32:20.359Z,15.97
2019-05-20T10:33:20.470Z,16.01
2019-05-20T10:34:20.350Z,16.09
2019-05-20T10:35:21.357Z,16.10
2019-05-20T10:36:20.302Z,16.04
2019-05-20T10:37:20.287Z,16.01
2019-05-20T10:38:20.321Z,15.97
2019-05-20T10:39:21.261Z,16.00
2019-05-20T10:40:20.310Z,16.02
2019-05-20T10:41:20.267Z,16.00
2019-05-20T10:42:20.281Z,16.20
2019-05-20T10:43:20.303Z,16.31
2019-05-20T10:44:20.213Z,16.39
2019-05-20T10:45:21.273Z,16.32
2019-05-20T10:46:20.220Z,16.46
2019-05-20T10:47:20.268Z,16.29
2019-05-20T10:48:20.211Z,16.21
2019-05-20T10:49:20.205Z,16.39
2019-05-20T10:50:20.232Z,16.43
2019-05-20T10:51:20.149Z,16.50
2019-05-20T10:52:20.218Z,16.60
2019-05-20T10:53:20.143Z,16.50
2019-05-20T10:54:20.152Z,16.60
2019-05-20T10:55:20.150Z,16.58
2019-05-20T10:56:20.165Z,16.64
2019-05-20T10:57:20.098Z,16.81
2019-05-20T10:58:20.192Z,16.94
2019-05-20T10:59:20.063Z,16.89
2019-05-20T11:00:20.166Z,16.87
2019-05-20T11:01:20.033Z,16.41
2019-05-20T11:02:20.124Z,16.38
2019-05-20T11:03:20.018Z,16.41
2019-05-20T11:04:20.052Z,16.61
2019-05-20T11:05:20.004Z,16.72
2019-05-20T11:06:20.030Z,16.68
2019-05-20T11:07:19.976Z,16.64
2019-05-20T11:08:20.100Z,16.65
2019-05-20T11:09:20.013Z,16.57
2019-05-20T11:10:19.940Z,16.54
2019-05-20T11:11:20.002Z,16.60
2019-05-20T11:12:19.940Z,16.47
2019-05-20T11:13:20.016Z,16.51
2019-05-20T11:14:19.947Z,16.66
2019-05-20T11:15:19.941Z,16.81
2019-05-20T11:16:19.878Z,17.04
2019-05-20T11:17:19.937Z,17.15
2019-05-20T11:18:19.869Z,17.16
2019-05-20T11:19:20.011Z,17.22
2019-05-20T11:20:19.854Z,17.33
2019-05-20T11:21:19.833Z,17.33
2019-05-20T11:22:19.814Z,17.27
2019-05-20T11:23:20.888Z,17.19
2019-05-20T11:24:19.870Z,17.24
2019-05-20T11:25:19.868Z,17.27
2019-05-20T11:26:19.918Z,17.36
2019-05-20T11:27:19.790Z,17.42
2019-05-20T11:28:20.817Z,17.49
2019-05-20T11:29:19.804Z,17.54
2019-05-20T11:30:21.853Z,17.70
2019-05-20T11:31:19.757Z,17.59
2019-05-20T11:32:19.732Z,17.52
2019-05-20T11:33:21.749Z,17.54
2019-05-20T11:34:19.708Z,17.52
2019-05-20T11:35:19.718Z,17.65
2019-05-20T11:36:19.711Z,17.79
2019-05-20T11:37:19.702Z,17.76
2019-05-20T11:38:19.702Z,17.80
2019-05-20T11:39:32.407Z,17.86
2019-05-20T11:40:20.615Z,17.87
2019-05-20T11:41:19.712Z,17.76
2019-05-20T11:42:19.603Z,17.80
2019-05-20T11:43:19.718Z,17.79
2019-05-20T11:44:19.673Z,17.70
2019-05-20T11:45:19.585Z,17.70
2019-05-20T11:46:19.677Z,17.67
2019-05-20T11:47:19.549Z,17.57
2019-05-20T11:48:19.546Z,17.46
2019-05-20T11:49:19.540Z,17.54
2019-05-20T11:50:19.707Z,17.46
2019-05-20T11:51:19.533Z,17.65
2019-05-20T11:52:20.668Z,17.76
2019-05-20T11:53:19.490Z,17.65
2019-05-20T11:54:19.574Z,17.82
2019-05-20T11:55:19.534Z,17.87
2019-05-20T11:56:19.585Z,18.03
2019-05-20T11:57:19.448Z,18.16
2019-05-20T11:58:19.515Z,18.28
2019-05-20T11:59:19.575Z,18.18
2019-05-20T12:00:19.465Z,18.20
2019-05-20T12:01:19.536Z,18.18
2019-05-20T12:02:19.413Z,18.34
2019-05-20T12:03:19.446Z,18.25
2019-05-20T12:04:19.426Z,17.89
2019-05-20T12:05:19.443Z,17.76
2019-05-20T12:06:19.349Z,17.74
2019-05-20T12:07:19.470Z,17.83
2019-05-20T12:08:19.426Z,18.03
2019-05-20T12:09:19.506Z,18.29
2019-05-20T12:10:19.373Z,18.35
2019-05-20T12:11:19.396Z,18.38
2019-05-20T12:12:19.328Z,18.49
2019-05-20T12:13:20.124Z,18.60
2019-05-20T12:14:19.287Z,18.73
2019-05-20T12:15:19.343Z,18.77
2019-05-20T12:16:19.278Z,18.78
2019-05-20T12:17:20.367Z,18.77
2019-05-20T12:18:19.266Z,18.80
2019-05-20T12:19:26.090Z,18.95
2019-05-20T12:20:19.324Z,18.99
2019-05-20T12:21:19.263Z,18.99
2019-05-20T12:22:19.328Z,18.68
2019-05-20T12:23:19.291Z,18.43
2019-05-20T12:24:19.277Z,18.20
2019-05-20T12:25:19.311Z,18.11
2019-05-20T12:26:22.479Z,17.95
2019-05-20T12:27:19.188Z,17.92
2019-05-20T12:28:19.199Z,18.10
2019-05-20T12:29:19.183Z,18.29
2019-05-20T12:30:19.279Z,18.44
2019-05-20T12:31:19.104Z,18.45
2019-05-20T12:32:19.105Z,18.47
2019-05-20T12:33:19.865Z,18.50
2019-05-20T12:34:19.082Z,18.53
2019-05-20T12:35:19.114Z,18.53
2019-05-20T12:36:19.057Z,18.52
2019-05-20T12:37:19.150Z,18.38
2019-05-20T12:38:19.173Z,18.29
2019-05-20T12:39:19.187Z,18.35
2019-05-20T12:40:19.058Z,18.23
2019-05-20T12:41:20.132Z,18.31
2019-05-20T12:42:19.054Z,18.22
2019-05-20T12:43:19.028Z,18.11
2019-05-20T12:44:18.981Z,18.19
2019-05-20T12:45:20.078Z,18.20
2019-05-20T12:46:18.970Z,18.33
2019-05-20T12:47:19.011Z,18.53
2019-05-20T12:48:19.008Z,18.47
2019-05-20T12:49:19.219Z,18.62
2019-05-20T12:50:18.929Z,18.70
2019-05-20T12:51:19.026Z,18.75
2019-05-20T12:52:18.916Z,18.73
2019-05-20T12:53:19.022Z,18.53